Walpi, Arizona
Current Conditions -  °F | °C
As of 9:56 AM on Thursday 30 Oct 2014 (Local Time) from KINW Reporting Station
Clear Clear  
Wind Chill: 58°   Ceiling: Unl
Heat Index: 58°   Visibility: 10mi
Dew Point: 25°   Wind: 7mph
Humidity: 28%   Direction: 100°E
Pressure: 30.33"   Gusts: NA
Location:  35.9347°N, 110.453°W
Report Text: KINW 301656Z AUTO 10006KT 10SM CLR 14/M04 A3033 RMK AO2 SLP238 T01441039
Loading
Personal Weather Stations






























Interactive Weather Map
Tropical Storm Tracking
New forecast layout! Learn more

10-Day Weather Forecast

Advertisements
Track Severe Weather on mobile